createdAt,value
2022-08-31T00:00:09.747Z,78.59
2022-08-31T00:02:57.628Z,77.75
2022-08-31T00:05:25.620Z,77.84
2022-08-31T00:07:55.601Z,77.01
2022-08-31T00:10:32.233Z,77.53
2022-08-31T00:13:01.487Z,77.56
2022-08-31T00:15:31.155Z,79.23
2022-08-31T00:18:00.400Z,79.78
2022-08-31T00:20:33.266Z,79.00
2022-08-31T00:23:02.729Z,78.60
2022-08-31T00:25:30.772Z,78.82
2022-08-31T00:27:58.672Z,79.59
2022-08-31T00:30:27.420Z,78.99
2022-08-31T00:32:57.067Z,78.53
2022-08-31T00:35:28.798Z,77.31
2022-08-31T00:37:57.514Z,77.94
2022-08-31T00:40:26.248Z,77.59
2022-08-31T00:42:55.326Z,77.98
2022-08-31T00:45:24.583Z,77.54
2022-08-31T00:47:53.401Z,78.00
2022-08-31T00:50:24.694Z,77.69
2022-08-31T00:52:56.474Z,77.29
2022-08-31T00:55:29.737Z,78.00
2022-08-31T00:58:01.148Z,77.45
2022-08-31T01:00:30.977Z,77.99
2022-08-31T01:03:01.901Z,77.96
2022-08-31T01:05:30.841Z,78.24
2022-08-31T01:08:01.665Z,78.82
2022-08-31T01:10:33.556Z,78.23
2022-08-31T01:13:02.787Z,78.57
2022-08-31T01:15:32.151Z,79.02
2022-08-31T01:18:02.886Z,78.12
2022-08-31T01:20:38.260Z,79.66
2022-08-31T01:23:19.116Z,79.30
2022-08-31T01:25:49.724Z,78.98
2022-08-31T01:28:17.357Z,78.55
2022-08-31T01:30:57.860Z,78.86
2022-08-31T01:33:25.676Z,79.16
2022-08-31T01:35:54.112Z,79.08
2022-08-31T01:38:24.524Z,79.27
2022-08-31T01:40:55.759Z,79.07
2022-08-31T01:43:24.884Z,79.06
2022-08-31T01:45:53.325Z,79.33
2022-08-31T01:48:22.747Z,79.65
2022-08-31T01:50:50.826Z,79.51
2022-08-31T01:53:18.985Z,79.52
2022-08-31T01:55:48.492Z,80.31
2022-08-31T01:58:16.815Z,79.54
2022-08-31T02:01:33.735Z,79.92
2022-08-31T02:04:04.119Z,80.32
2022-08-31T02:06:32.893Z,80.77
2022-08-31T02:09:00.814Z,80.61
2022-08-31T02:11:30.229Z,80.48
2022-08-31T02:13:58.438Z,80.73
2022-08-31T02:16:26.475Z,81.45
2022-08-31T02:18:55.204Z,80.10
2022-08-31T02:21:23.429Z,79.64
2022-08-31T02:23:51.528Z,79.69
2022-08-31T02:26:19.976Z,79.66
2022-08-31T02:28:49.290Z,80.05
2022-08-31T02:31:17.778Z,80.86
2022-08-31T02:33:53.488Z,81.01
2022-08-31T02:36:23.537Z,79.89
2022-08-31T02:38:52.568Z,80.47
2022-08-31T02:41:21.658Z,80.50
2022-08-31T02:43:51.244Z,80.34
2022-08-31T02:46:19.456Z,80.56
2022-08-31T02:48:57.130Z,80.14
2022-08-31T02:51:25.409Z,81.37
2022-08-31T02:53:53.845Z,82.60
2022-08-31T02:56:23.999Z,81.89
2022-08-31T02:58:55.111Z,82.98
2022-08-31T03:01:26.427Z,84.64
2022-08-31T03:03:54.653Z,84.48
2022-08-31T03:06:23.679Z,85.15
2022-08-31T03:08:51.694Z,84.63
2022-08-31T03:11:20.499Z,84.28
2022-08-31T03:13:48.527Z,84.84
2022-08-31T03:16:17.835Z,84.87
2022-08-31T03:18:48.631Z,85.41
2022-08-31T03:21:17.375Z,85.40
2022-08-31T03:23:45.183Z,84.64
2022-08-31T03:26:13.393Z,85.27
2022-08-31T03:28:42.144Z,84.75
2022-08-31T03:31:40.381Z,85.44
2022-08-31T03:34:08.538Z,86.51
2022-08-31T03:36:37.004Z,86.02
2022-08-31T03:39:05.520Z,86.61
2022-08-31T03:41:33.325Z,85.48
2022-08-31T03:44:02.780Z,85.20
2022-08-31T03:46:33.118Z,85.32
2022-08-31T03:49:04.360Z,85.62
2022-08-31T03:51:34.585Z,85.75
2022-08-31T03:54:03.331Z,86.53
2022-08-31T03:56:33.476Z,86.62
2022-08-31T03:59:01.347Z,87.38
2022-08-31T04:01:49.163Z,87.68
2022-08-31T04:04:41.658Z,87.24
2022-08-31T04:07:27.802Z,87.26
2022-08-31T04:10:15.999Z,87.46
2022-08-31T04:13:19.762Z,88.03
2022-08-31T04:16:20.741Z,88.57
2022-08-31T04:19:24.411Z,89.04
2022-08-31T04:22:15.768Z,88.07
2022-08-31T04:25:00.344Z,86.91
2022-08-31T04:27:28.371Z,86.41
2022-08-31T04:29:56.420Z,86.00
2022-08-31T04:32:24.402Z,86.37
2022-08-31T04:34:56.130Z,86.75
2022-08-31T04:37:26.021Z,86.87
2022-08-31T04:39:59.305Z,87.70
2022-08-31T04:42:27.391Z,87.94
2022-08-31T04:44:55.271Z,87.12
2022-08-31T04:47:24.314Z,86.58
2022-08-31T04:49:52.115Z,87.52
2022-08-31T04:52:20.022Z,88.06
2022-08-31T04:54:57.328Z,87.87
2022-08-31T04:57:25.274Z,88.10
2022-08-31T04:59:53.324Z,88.30
2022-08-31T05:02:54.597Z,88.03
2022-08-31T05:05:22.872Z,87.89
2022-08-31T05:07:51.135Z,88.43
2022-08-31T05:10:21.667Z,88.51
2022-08-31T05:12:51.743Z,88.65
2022-08-31T05:15:21.368Z,87.78
2022-08-31T05:17:49.242Z,87.85
2022-08-31T05:20:17.765Z,88.76
2022-08-31T05:22:45.570Z,88.43
2022-08-31T05:25:14.039Z,88.78
2022-08-31T05:27:43.672Z,88.55
2022-08-31T05:30:13.761Z,87.75
2022-08-31T05:32:45.713Z,88.95
2022-08-31T05:35:14.092Z,88.36
2022-08-31T05:37:44.669Z,87.39
2022-08-31T05:40:13.562Z,87.89
2022-08-31T05:42:42.914Z,88.36
2022-08-31T05:45:11.447Z,87.42
2022-08-31T05:47:40.947Z,87.90
2022-08-31T05:50:10.365Z,88.12
2022-08-31T05:52:41.199Z,87.74
2022-08-31T05:55:09.793Z,87.73
2022-08-31T05:57:38.220Z,87.68
2022-08-31T06:00:09.773Z,88.15
2022-08-31T06:02:42.421Z,88.35
2022-08-31T06:05:13.100Z,87.93
2022-08-31T06:07:41.843Z,88.01
2022-08-31T06:10:12.638Z,87.70
2022-08-31T06:12:42.393Z,87.36
2022-08-31T06:15:13.204Z,87.46
2022-08-31T06:17:41.043Z,86.30
2022-08-31T06:20:14.224Z,86.68
2022-08-31T06:22:46.774Z,86.32
2022-08-31T06:25:23.569Z,85.96
2022-08-31T06:27:52.976Z,86.04
2022-08-31T06:30:27.251Z,86.26
2022-08-31T06:32:58.653Z,85.96
2022-08-31T06:35:31.890Z,85.61
2022-08-31T06:38:22.783Z,85.28
2022-08-31T06:41:16.484Z,84.00
2022-08-31T06:44:07.886Z,83.42
2022-08-31T06:46:53.943Z,84.10
2022-08-31T06:49:27.318Z,83.97
2022-08-31T06:51:55.426Z,83.13
2022-08-31T06:54:30.977Z,83.20
2022-08-31T06:57:25.147Z,83.91
2022-08-31T07:00:12.142Z,82.99
2022-08-31T07:02:57.307Z,83.40
2022-08-31T07:05:26.360Z,81.65
2022-08-31T07:07:55.128Z,81.31
2022-08-31T07:10:23.091Z,81.58
2022-08-31T07:12:51.054Z,81.55
2022-08-31T07:15:18.925Z,81.48
2022-08-31T07:17:47.995Z,81.85
2022-08-31T07:20:17.639Z,81.30
2022-08-31T07:22:45.535Z,80.19
2022-08-31T07:25:34.055Z,80.56
2022-08-31T07:28:02.580Z,79.96
2022-08-31T07:30:34.252Z,80.11
2022-08-31T07:33:06.104Z,79.27
2022-08-31T07:35:37.388Z,79.14
2022-08-31T07:38:38.052Z,78.43
2022-08-31T07:41:27.852Z,77.73
2022-08-31T07:43:57.198Z,77.14
2022-08-31T07:46:30.016Z,76.22
2022-08-31T07:48:58.590Z,77.24
2022-08-31T07:52:06.024Z,75.83
2022-08-31T07:55:07.779Z,75.03
2022-08-31T07:57:53.459Z,74.32
2022-08-31T08:00:24.279Z,72.59
2022-08-31T08:02:53.071Z,73.71
2022-08-31T08:05:27.094Z,72.45
2022-08-31T08:08:16.840Z,72.25
2022-08-31T08:10:56.376Z,71.93
2022-08-31T08:13:54.364Z,71.22
2022-08-31T08:16:30.286Z,72.88
2022-08-31T08:19:08.884Z,70.56
2022-08-31T08:21:37.875Z,70.11
2022-08-31T08:24:08.282Z,71.65
2022-08-31T08:27:08.293Z,73.05
2022-08-31T08:29:53.831Z,72.10
2022-08-31T08:32:31.341Z,70.94
2022-08-31T08:34:59.908Z,71.27
2022-08-31T08:37:54.437Z,70.94
2022-08-31T08:40:28.425Z,69.68
2022-08-31T08:42:58.847Z,70.46
2022-08-31T08:45:27.452Z,71.16
2022-08-31T08:47:57.010Z,69.53
2022-08-31T08:50:28.354Z,66.86
2022-08-31T08:52:59.399Z,67.56
2022-08-31T08:55:36.874Z,68.21
2022-08-31T08:58:08.354Z,69.04
2022-08-31T09:00:42.000Z,69.33
2022-08-31T09:03:21.114Z,68.45
2022-08-31T09:06:13.548Z,68.08
2022-08-31T09:09:24.380Z,67.36
2022-08-31T09:12:14.845Z,66.03
2022-08-31T09:14:53.537Z,66.55
2022-08-31T09:17:40.455Z,65.97
2022-08-31T09:20:09.113Z,64.45
2022-08-31T09:22:47.003Z,62.34
2022-08-31T09:25:19.034Z,62.69
2022-08-31T09:28:07.519Z,63.16
2022-08-31T09:30:52.058Z,63.08
2022-08-31T09:33:23.574Z,61.75
2022-08-31T09:35:55.734Z,62.80
2022-08-31T09:38:31.941Z,63.59
2022-08-31T09:41:02.097Z,61.23
2022-08-31T09:43:38.487Z,60.55
2022-08-31T09:46:09.629Z,60.21
2022-08-31T09:48:51.610Z,60.19
2022-08-31T09:51:25.493Z,61.55
2022-08-31T09:54:11.508Z,61.42
2022-08-31T09:56:55.022Z,60.47
2022-08-31T09:59:38.508Z,57.81
2022-08-31T10:02:11.337Z,59.00
2022-08-31T10:04:51.027Z,59.24
2022-08-31T10:07:37.715Z,58.35
2022-08-31T10:10:28.122Z,59.88
2022-08-31T10:13:03.702Z,60.75
2022-08-31T10:15:43.131Z,59.57
2022-08-31T10:18:16.412Z,59.50
2022-08-31T10:20:50.716Z,57.38
2022-08-31T10:23:27.083Z,57.89
2022-08-31T10:26:02.854Z,59.00
2022-08-31T10:28:35.960Z,60.30
2022-08-31T10:31:12.588Z,60.31
2022-08-31T10:34:02.406Z,59.96
2022-08-31T10:36:36.362Z,59.19
2022-08-31T10:39:05.150Z,58.75
2022-08-31T10:41:41.067Z,58.11
2022-08-31T10:44:17.946Z,58.16
2022-08-31T10:46:47.109Z,57.94
2022-08-31T10:49:15.207Z,57.06
2022-08-31T10:51:52.065Z,56.11
2022-08-31T10:54:32.975Z,56.65
2022-08-31T10:57:09.518Z,56.06
2022-08-31T10:59:57.754Z,56.39
2022-08-31T11:02:40.880Z,55.85
2022-08-31T11:05:26.996Z,55.87
2022-08-31T11:08:02.784Z,55.54
2022-08-31T11:10:44.601Z,54.74
2022-08-31T11:13:38.395Z,54.86
2022-08-31T11:16:36.428Z,54.56
2022-08-31T11:19:33.114Z,55.11
2022-08-31T11:22:37.519Z,55.67
2022-08-31T11:25:24.878Z,54.02
2022-08-31T11:28:00.197Z,55.41
2022-08-31T11:30:32.706Z,55.36
2022-08-31T11:33:07.620Z,54.72
2022-08-31T11:36:05.604Z,55.38
2022-08-31T11:38:52.227Z,54.38
2022-08-31T11:41:46.586Z,54.88
2022-08-31T11:44:53.937Z,54.67
2022-08-31T11:47:35.680Z,54.15
2022-08-31T11:50:10.485Z,54.15
2022-08-31T11:55:29.510Z,53.41
2022-08-31T11:58:20.739Z,53.72
2022-08-31T12:01:03.021Z,53.96
2022-08-31T12:03:43.171Z,52.92
2022-08-31T12:06:12.459Z,54.39
2022-08-31T12:08:52.705Z,52.34
2022-08-31T12:11:29.629Z,52.53
2022-08-31T12:14:05.673Z,51.08
2022-08-31T12:16:53.516Z,52.67
2022-08-31T12:20:01.900Z,52.26
2022-08-31T12:23:30.207Z,52.63
2022-08-31T12:26:44.911Z,51.81
2022-08-31T12:29:26.705Z,50.98
2022-08-31T12:32:11.145Z,50.74
2022-08-31T12:34:45.398Z,50.40
2022-08-31T12:37:35.207Z,50.81
2022-08-31T12:40:12.130Z,51.48
2022-08-31T12:42:48.859Z,52.22
2022-08-31T12:45:18.444Z,51.72
2022-08-31T12:47:58.997Z,52.41
2022-08-31T12:50:34.363Z,52.46
2022-08-31T12:53:41.189Z,52.64
2022-08-31T12:56:15.146Z,51.05
2022-08-31T12:59:04.804Z,50.97
2022-08-31T13:01:33.486Z,51.79
2022-08-31T13:04:04.815Z,50.64
2022-08-31T13:06:36.291Z,51.21
2022-08-31T13:09:06.632Z,51.14
2022-08-31T13:11:40.648Z,52.14
2022-08-31T13:14:15.676Z,52.27
2022-08-31T13:16:46.615Z,50.83
2022-08-31T13:19:25.990Z,51.97
2022-08-31T13:21:58.828Z,51.64
2022-08-31T13:24:30.933Z,51.99
2022-08-31T13:27:09.556Z,51.32
2022-08-31T13:29:45.171Z,53.11
2022-08-31T13:32:32.209Z,51.07
2022-08-31T13:35:03.245Z,51.29
2022-08-31T13:37:35.750Z,51.70
2022-08-31T13:40:11.299Z,50.95
2022-08-31T13:42:42.996Z,51.84
2022-08-31T13:45:26.569Z,51.51
2022-08-31T13:47:58.764Z,51.87
2022-08-31T13:50:34.284Z,51.75
2022-08-31T13:55:54.003Z,52.54
2022-08-31T13:58:29.246Z,51.90
2022-08-31T14:01:25.670Z,52.69
2022-08-31T14:03:58.375Z,51.63
2022-08-31T14:06:30.822Z,53.28
2022-08-31T14:09:05.290Z,52.25
2022-08-31T14:11:35.894Z,53.03
2022-08-31T14:14:08.380Z,52.81
2022-08-31T14:16:43.505Z,52.93
2022-08-31T14:19:14.387Z,52.96
2022-08-31T14:21:43.802Z,51.28
2022-08-31T14:24:13.283Z,50.91
2022-08-31T14:26:43.309Z,51.29
2022-08-31T14:29:13.812Z,52.01
2022-08-31T14:31:52.294Z,50.99
2022-08-31T14:34:24.637Z,50.26
2022-08-31T14:36:56.740Z,51.02
2022-08-31T14:39:29.953Z,50.76
2022-08-31T14:42:00.758Z,50.25
2022-08-31T14:44:32.296Z,50.90
2022-08-31T14:47:02.005Z,49.80
2022-08-31T14:49:41.097Z,49.53
2022-08-31T14:52:09.566Z,49.32
2022-08-31T14:54:38.282Z,49.70
2022-08-31T14:57:11.546Z,49.98
2022-08-31T14:59:43.426Z,50.52
2022-08-31T15:02:16.517Z,51.56
2022-08-31T15:04:45.935Z,52.00
2022-08-31T15:07:14.992Z,52.63
2022-08-31T15:09:44.084Z,52.77
2022-08-31T15:12:14.906Z,52.79
2022-08-31T15:14:45.063Z,52.53
2022-08-31T15:17:19.682Z,53.35
2022-08-31T15:19:53.112Z,52.84
2022-08-31T15:22:21.811Z,53.62
2022-08-31T15:24:50.403Z,53.50
2022-08-31T15:27:18.817Z,55.10
2022-08-31T15:29:51.008Z,54.65
2022-08-31T15:32:22.630Z,54.71
2022-08-31T15:34:58.038Z,54.11
2022-08-31T15:37:32.133Z,55.27
2022-08-31T15:40:03.766Z,55.40
2022-08-31T15:42:36.895Z,55.60
2022-08-31T15:45:06.530Z,55.39
2022-08-31T15:47:56.819Z,56.44
2022-08-31T15:50:31.390Z,55.96
2022-08-31T15:53:08.701Z,55.51
2022-08-31T15:55:41.153Z,55.06
2022-08-31T15:58:13.807Z,56.57
2022-08-31T16:00:42.426Z,55.70
2022-08-31T16:03:12.647Z,55.90
2022-08-31T16:05:43.825Z,56.75
2022-08-31T16:08:13.554Z,55.08
2022-08-31T16:10:46.611Z,55.64
2022-08-31T16:13:16.526Z,55.91
2022-08-31T16:15:51.593Z,55.69
2022-08-31T16:18:23.233Z,55.05
2022-08-31T16:20:52.409Z,55.42
2022-08-31T16:23:21.402Z,55.51
2022-08-31T16:25:49.837Z,55.03
2022-08-31T16:28:21.055Z,55.08
2022-08-31T16:30:51.966Z,55.63
2022-08-31T16:33:22.195Z,55.50
2022-08-31T16:35:52.082Z,55.07
2022-08-31T16:38:27.917Z,55.70
2022-08-31T16:41:03.190Z,56.21
2022-08-31T16:43:31.564Z,55.87
2022-08-31T16:46:00.871Z,55.68
2022-08-31T16:48:51.097Z,56.58
2022-08-31T16:51:26.314Z,55.84
2022-08-31T16:54:01.205Z,56.73
2022-08-31T16:56:42.329Z,56.76
2022-08-31T16:59:19.785Z,57.00
2022-08-31T17:01:47.933Z,57.27
2022-08-31T17:04:41.156Z,58.24
2022-08-31T17:07:13.502Z,57.16
2022-08-31T17:09:47.658Z,58.06
2022-08-31T17:12:27.615Z,58.97
2022-08-31T17:14:59.257Z,58.54
2022-08-31T17:17:32.655Z,59.00
2022-08-31T17:20:07.024Z,58.12
2022-08-31T17:25:52.881Z,58.61
2022-08-31T17:28:39.875Z,60.38
2022-08-31T17:31:16.838Z,60.89
2022-08-31T17:34:00.668Z,61.29
2022-08-31T17:36:44.184Z,61.69
2022-08-31T17:39:28.903Z,62.43
2022-08-31T17:42:02.127Z,62.29
2022-08-31T17:44:31.838Z,62.42
2022-08-31T17:47:06.238Z,63.14
2022-08-31T17:49:42.142Z,63.05
2022-08-31T17:52:23.501Z,63.22
2022-08-31T17:54:52.754Z,63.11
2022-08-31T17:57:25.631Z,63.99
2022-08-31T17:59:56.027Z,64.28
2022-08-31T18:02:27.699Z,64.54
2022-08-31T18:04:57.700Z,64.34
2022-08-31T18:07:29.377Z,64.93
2022-08-31T18:10:00.966Z,64.81
2022-08-31T18:12:29.605Z,65.62
2022-08-31T18:14:59.557Z,65.00
2022-08-31T18:17:27.945Z,64.98
2022-08-31T18:19:56.641Z,65.77
2022-08-31T18:22:25.447Z,65.52
2022-08-31T18:24:55.320Z,66.24
2022-08-31T18:27:23.991Z,66.86
2022-08-31T18:29:52.913Z,66.37
2022-08-31T18:32:21.289Z,66.63
2022-08-31T18:34:52.087Z,66.97
2022-08-31T18:37:26.097Z,67.20
2022-08-31T18:40:13.269Z,67.41
2022-08-31T18:43:07.401Z,67.77
2022-08-31T18:45:39.676Z,67.69
2022-08-31T18:48:24.281Z,67.55
2022-08-31T18:50:54.655Z,67.39
2022-08-31T18:53:29.314Z,67.84
2022-08-31T18:56:09.247Z,67.81
2022-08-31T18:58:38.060Z,68.37
2022-08-31T19:01:10.601Z,68.72
2022-08-31T19:03:39.872Z,68.73
2022-08-31T19:06:09.294Z,68.03
2022-08-31T19:08:37.796Z,67.69
2022-08-31T19:11:09.137Z,67.93
2022-08-31T19:13:38.885Z,67.80
2022-08-31T19:16:15.239Z,67.55
2022-08-31T19:18:47.680Z,69.30
2022-08-31T19:21:19.386Z,68.93
2022-08-31T19:23:49.736Z,68.57
2022-08-31T19:26:23.987Z,69.37
2022-08-31T19:28:52.535Z,69.55
2022-08-31T19:31:22.966Z,70.56
2022-08-31T19:33:56.396Z,70.52
2022-08-31T19:36:27.737Z,71.31
2022-08-31T19:38:57.700Z,71.91
2022-08-31T19:41:29.707Z,71.13
2022-08-31T19:44:09.008Z,71.42
2022-08-31T19:46:39.101Z,72.75
2022-08-31T19:49:09.711Z,72.50
2022-08-31T19:51:38.660Z,72.76
2022-08-31T19:54:09.049Z,72.95
2022-08-31T19:56:40.112Z,73.77
2022-08-31T19:59:09.411Z,73.93
2022-08-31T20:01:40.292Z,73.24
2022-08-31T20:04:15.918Z,73.74
2022-08-31T20:06:45.261Z,74.10
2022-08-31T20:09:14.107Z,73.50
2022-08-31T20:11:47.520Z,74.04
2022-08-31T20:14:16.843Z,74.10
2022-08-31T20:16:46.516Z,74.40
2022-08-31T20:19:21.027Z,73.87
2022-08-31T20:21:54.059Z,74.22
2022-08-31T20:24:25.478Z,74.81
2022-08-31T20:27:01.093Z,74.76
2022-08-31T20:29:30.449Z,74.89
2022-08-31T20:32:01.301Z,75.02
2022-08-31T20:34:29.243Z,75.07
2022-08-31T20:37:01.182Z,75.00
2022-08-31T20:39:32.306Z,75.45
2022-08-31T20:42:03.392Z,74.73
2022-08-31T20:44:33.752Z,75.86
2022-08-31T20:47:21.684Z,77.60
2022-08-31T20:49:54.553Z,76.17
2022-08-31T20:52:24.165Z,76.13
2022-08-31T20:54:54.328Z,76.58
2022-08-31T20:57:33.061Z,76.96
2022-08-31T21:00:05.639Z,78.41
2022-08-31T21:02:34.337Z,78.33
2022-08-31T21:07:52.242Z,78.18
2022-08-31T21:10:37.043Z,78.61
2022-08-31T21:13:09.803Z,78.30
2022-08-31T21:15:42.774Z,77.60
2022-08-31T21:18:10.823Z,78.98
2022-08-31T21:20:39.250Z,78.28
2022-08-31T21:23:09.757Z,77.93
2022-08-31T21:25:44.886Z,78.24
2022-08-31T21:28:17.044Z,79.74
2022-08-31T21:30:47.038Z,78.64
2022-08-31T21:33:14.851Z,78.45
2022-08-31T21:35:42.769Z,78.23
2022-08-31T21:38:13.088Z,78.72
2022-08-31T21:40:48.034Z,78.52
2022-08-31T21:43:17.285Z,78.54
2022-08-31T21:45:45.285Z,78.59
2022-08-31T21:48:13.092Z,78.56
2022-08-31T21:50:40.912Z,79.12
2022-08-31T21:53:08.762Z,79.06
2022-08-31T21:55:38.496Z,78.68
2022-08-31T21:58:06.349Z,79.28
2022-08-31T22:00:35.594Z,80.54
2022-08-31T22:03:03.520Z,80.10
2022-08-31T22:05:31.643Z,79.94
2022-08-31T22:07:59.452Z,80.63
2022-08-31T22:10:30.348Z,80.55
2022-08-31T22:12:58.459Z,80.93
2022-08-31T22:15:28.099Z,80.45
2022-08-31T22:18:31.460Z,80.90
2022-08-31T22:20:46.007Z,81.08
2022-08-31T22:23:14.121Z,82.69
2022-08-31T22:25:41.930Z,83.44
2022-08-31T22:28:10.226Z,82.50
2022-08-31T22:30:38.039Z,82.41
2022-08-31T22:33:07.353Z,83.08
2022-08-31T22:35:39.344Z,83.70
2022-08-31T22:38:09.121Z,84.10
2022-08-31T22:40:39.423Z,84.19
2022-08-31T22:43:07.673Z,84.95
2022-08-31T22:45:35.711Z,85.18
2022-08-31T22:48:03.827Z,85.34
2022-08-31T22:50:32.999Z,86.13
2022-08-31T22:53:00.816Z,87.64
2022-08-31T22:55:28.636Z,87.26
2022-08-31T22:57:56.575Z,87.38
2022-08-31T23:00:24.727Z,89.34
2022-08-31T23:02:52.897Z,92.35
2022-08-31T23:05:21.392Z,93.33
2022-08-31T23:07:50.512Z,92.90
2022-08-31T23:10:20.382Z,92.82
2022-08-31T23:12:51.169Z,91.68
2022-08-31T23:15:21.587Z,90.04
2022-08-31T23:17:51.539Z,88.88
2022-08-31T23:20:24.403Z,88.56
2022-08-31T23:22:55.306Z,88.47
2022-08-31T23:25:25.042Z,88.59
2022-08-31T23:27:53.391Z,89.07
2022-08-31T23:30:24.853Z,90.56
2022-08-31T23:32:53.368Z,90.18
2022-08-31T23:35:22.066Z,89.95
2022-08-31T23:37:49.957Z,90.69
2022-08-31T23:40:19.219Z,90.44
2022-08-31T23:42:47.055Z,90.29
2022-08-31T23:45:16.126Z,90.18
2022-08-31T23:47:43.900Z,89.94
2022-08-31T23:50:13.989Z,92.91
2022-08-31T23:52:43.620Z,94.47
2022-08-31T23:55:12.090Z,92.29
2022-08-31T23:57:41.916Z,91.57
